Aviation Digital Data Service (ADDS)

Output produced by METARs form (0450 UTC 19 February 2019)
found at http://www.aviationweather.gov/metar/data/
 
Forecast for: LEAB (ALBACETE (CIV/MI, ES)
Text: TAF LEAB 190200Z 1903/1912 VRB05KT CAVOK
Forecast period: 0300 to 1200 UTC 19 February 2019
Forecast type: FROM: standard forecast or significant change
Winds: variable direction winds at 6 MPH (5 knots; 2.6 m/s)
Visibility: 6 or more miles 10+ km)
Ceiling: unknown
Clouds: missing
Weather: NSW  (no significant weather)
Text: PROB40
Forecast period: 0300 to 0900 UTC 19 February 2019
Forecast type: TEMPORARY: The following changes expected for less than half the time period
Visibility: 1.86 miles (2.99 km)
Ceiling: 600 feet AGL
Clouds: broken clouds at 600 feet AGL
Weather: BR  (mist)
Text: TEMPO 1903/1909 3000 BR BKN006
Forecast period: 0300 to 0900 UTC 19 February 2019
Forecast type: TEMPORARY: The following changes expected for less than half the time period
Visibility: 0.12 miles (0.19 km)
Ceiling: indefinite ceiling with vertical visibility of 100 feet AGL
Clouds: obscured sky
Weather: FG  (fog)